Time;durP1;ratioP1;P1;durP2;ratioP2;P2;SDS_P1;SDS_P2;PMS_P1;PMS_P2;Temp;Humidity;BMP_temperature;BMP_pressure;BME280_temperature;BME280_humidity;BME280_pressure;Samples;Min_cycle;Max_cycle;Signal;HPM_P1;HPM_P2
2022/09/09 00:01:10;;;;;;;18.30;12.52;;;14.00;99.90;;;;;;5056961;28;20040;-71
2022/09/09 00:03:56;;;;;;;20.60;14.00;;;14.00;99.90;;;;;;5056436;28;20053;-71
2022/09/09 00:06:27;;;;;;;14.75;10.77;;;14.00;99.90;;;;;;5057572;28;20051;-71
2022/09/09 00:09:17;;;;;;;20.10;12.07;;;14.00;99.90;;;;;;5057475;28;20392;-70
2022/09/09 00:11:47;;;;;;;19.30;10.98;;;13.90;99.90;;;;;;5057894;28;20048;-71
2022/09/09 00:14:39;;;;;;;21.98;11.77;;;13.90;99.90;;;;;;5056267;28;20045;-72
2022/09/09 00:17:11;;;;;;;15.68;11.55;;;13.90;99.90;;;;;;5029527;28;20481;-72
2022/09/09 00:19:50;;;;;;;25.37;11.57;;;13.90;99.90;;;;;;5037151;28;20133;-71
2022/09/09 00:22:26;;;;;;;18.73;12.73;;;13.80;99.90;;;;;;5037097;28;20043;-72
2022/09/09 00:24:54;;;;;;;17.58;12.27;;;13.80;99.90;;;;;;5036627;28;20426;-72
2022/09/09 00:27:44;;;;;;;14.25;11.18;;;13.80;99.90;;;;;;5042608;28;20068;-71
2022/09/09 00:30:18;;;;;;;27.70;13.30;;;13.70;99.90;;;;;;5056627;28;20072;-71
2022/09/09 00:32:44;;;;;;;19.27;13.00;;;13.70;99.90;;;;;;5056457;28;20049;-71
2022/09/09 00:35:10;;;;;;;24.10;13.63;;;13.70;99.90;;;;;;5056448;28;20045;-73
2022/09/09 00:37:36;;;;;;;18.63;12.63;;;13.70;99.90;;;;;;5056119;28;20049;-72
2022/09/09 00:40:18;;;;;;;19.17;12.38;;;13.60;99.90;;;;;;5056513;28;20049;-72
2022/09/09 00:42:45;;;;;;;19.27;12.52;;;13.60;99.90;;;;;;5056950;28;20079;-71
2022/09/09 00:45:20;;;;;;;18.30;12.55;;;13.60;99.90;;;;;;5056121;28;20136;-71
2022/09/09 00:47:53;;;;;;;21.98;13.85;;;13.60;99.90;;;;;;5056666;28;20041;-72
2022/09/09 00:50:29;;;;;;;20.85;11.20;;;13.60;99.90;;;;;;5056049;28;20457;-71
2022/09/09 00:53:19;;;;;;;20.85;12.65;;;13.60;99.90;;;;;;5056422;28;20048;-72
2022/09/09 00:55:51;;;;;;;17.73;12.77;;;13.60;99.90;;;;;;5055914;28;20041;-70
2022/09/09 00:58:16;;;;;;;18.73;12.23;;;13.60;99.90;;;;;;5055676;28;20127;-71
2022/09/09 01:00:52;;;;;;;20.17;12.40;;;13.50;99.90;;;;;;5056312;28;20123;-71
2022/09/09 01:03:21;;;;;;;17.17;12.48;;;13.50;99.90;;;;;;5056092;28;20055;-71
2022/09/09 01:06:13;;;;;;;19.83;12.57;;;13.50;99.90;;;;;;5055846;28;20068;-72
2022/09/09 01:09:15;;;;;;;20.98;12.02;;;13.40;99.90;;;;;;5056229;28;20144;-71
2022/09/09 01:11:52;;;;;;;16.52;11.60;;;13.40;99.90;;;;;;5055869;28;20411;-72
2022/09/09 01:14:39;;;;;;;22.33;13.18;;;13.40;99.90;;;;;;5055760;28;20453;-71
2022/09/09 01:17:23;;;;;;;17.10;11.57;;;13.40;99.90;;;;;;5055597;28;20047;-71
2022/09/09 01:20:04;;;;;;;14.77;11.07;;;13.40;99.90;;;;;;5055800;28;20037;-70
2022/09/09 01:23:14;;;;;;;19.88;11.77;;;13.30;99.90;;;;;;5055561;28;20037;-72
2022/09/09 01:26:17;;;;;;;19.13;12.20;;;13.30;99.90;;;;;;5055419;28;20041;-72
2022/09/09 01:28:55;;;;;;;20.05;13.05;;;13.30;99.90;;;;;;5047586;28;20465;-72
2022/09/09 01:31:26;;;;;;;22.38;12.27;;;13.30;99.90;;;;;;5004573;28;20057;-70
2022/09/09 01:33:52;;;;;;;23.05;12.02;;;13.30;99.90;;;;;;5055370;28;20045;-70
2022/09/09 01:36:35;;;;;;;17.45;11.95;;;13.30;99.90;;;;;;5055406;28;20369;-72
2022/09/09 01:39:01;;;;;;;15.23;10.63;;;13.20;99.90;;;;;;5054965;28;20053;-70
2022/09/09 01:41:27;;;;;;;18.58;11.10;;;13.30;99.90;;;;;;5055259;28;20427;-71
2022/09/09 01:43:54;;;;;;;20.23;13.30;;;13.20;99.90;;;;;;5054975;28;20060;-72
2022/09/09 01:46:22;;;;;;;18.88;11.75;;;13.30;99.90;;;;;;5055092;28;20483;-71
2022/09/09 01:48:49;;;;;;;18.50;11.57;;;13.30;99.90;;;;;;5055823;28;20102;-71
2022/09/09 01:51:15;;;;;;;18.23;11.38;;;13.40;99.90;;;;;;5054944;28;20055;-72
2022/09/09 01:53:42;;;;;;;16.35;11.60;;;13.30;99.90;;;;;;5054785;28;20505;-70
2022/09/09 01:56:48;;;;;;;20.23;12.65;;;13.30;99.90;;;;;;5055359;28;20049;-71
2022/09/09 01:59:47;;;;;;;18.52;11.93;;;13.30;99.90;;;;;;5054941;28;20468;-71
2022/09/09 02:02:16;;;;;;;14.52;10.90;;;13.40;99.90;;;;;;5055478;28;20105;-71
2022/09/09 02:04:46;;;;;;;22.67;12.23;;;13.40;99.90;;;;;;5054826;28;20041;-72
2022/09/09 02:07:36;;;;;;;23.20;12.85;;;13.40;99.90;;;;;;5054962;28;20049;-71
2022/09/09 02:10:20;;;;;;;23.60;13.02;;;13.40;99.90;;;;;;5054883;28;20043;-71
2022/09/09 02:12:55;;;;;;;16.55;11.30;;;13.30;99.90;;;;;;5054887;28;20067;-72
2022/09/09 02:15:28;;;;;;;15.73;11.32;;;13.40;99.90;;;;;;5054792;28;20123;-72
2022/09/09 02:17:57;;;;;;;19.05;11.38;;;13.50;99.90;;;;;;5003821;28;20102;-72
2022/09/09 02:20:24;;;;;;;15.38;10.95;;;13.40;99.90;;;;;;5055191;28;20064;-72
2022/09/09 02:22:50;;;;;;;18.65;10.25;;;13.50;99.90;;;;;;5054542;28;20049;-72
2022/09/09 02:25:19;;;;;;;15.43;9.98;;;13.60;99.90;;;;;;5054709;28;20453;-71
2022/09/09 02:27:46;;;;;;;16.20;10.57;;;13.60;99.90;;;;;;5054763;28;20064;-72
2022/09/09 02:30:13;;;;;;;19.98;12.23;;;13.60;99.90;;;;;;5054747;28;20053;-71
2022/09/09 02:32:41;;;;;;;16.52;10.55;;;13.60;99.90;;;;;;5054596;28;20057;-72
2022/09/09 02:35:11;;;;;;;17.88;10.75;;;13.70;99.90;;;;;;5054867;28;20081;-71
2022/09/09 02:37:39;;;;;;;14.10;10.25;;;13.70;99.90;;;;;;5054253;28;20123;-72
2022/09/09 02:40:07;;;;;;;15.98;10.52;;;13.80;99.90;;;;;;5058364;28;20140;-71
2022/09/09 02:42:38;;;;;;;14.82;10.88;;;13.80;99.90;;;;;;5041006;28;20128;-71
2022/09/09 02:45:04;;;;;;;14.70;9.30;;;13.80;99.90;;;;;;5058680;28;20048;-71
2022/09/09 02:47:46;;;;;;;16.98;10.50;;;13.90;99.90;;;;;;5058560;28;20106;-71
2022/09/09 02:50:30;;;;;;;14.77;10.07;;;13.90;99.90;;;;;;5057987;28;20041;-72
2022/09/09 02:53:07;;;;;;;17.60;10.15;;;14.00;99.90;;;;;;5058678;28;20044;-72
2022/09/09 02:55:52;;;;;;;15.88;9.52;;;14.00;99.90;;;;;;5059117;28;20123;-72
2022/09/09 02:58:18;;;;;;;13.13;8.88;;;14.00;99.90;;;;;;5057821;28;20469;-71
2022/09/09 03:00:46;;;;;;;15.95;8.90;;;14.10;99.90;;;;;;5058479;28;20047;-72
2022/09/09 03:03:12;;;;;;;16.73;8.68;;;14.10;99.90;;;;;;5057919;28;20041;-72
2022/09/09 03:05:38;;;;;;;14.52;9.75;;;14.10;99.90;;;;;;5057797;28;20047;-72
2022/09/09 03:08:05;;;;;;;12.63;8.73;;;14.20;99.90;;;;;;5058212;28;20045;-71
2022/09/09 03:10:31;;;;;;;16.75;10.13;;;14.10;99.90;;;;;;5058564;28;20136;-72
2022/09/09 03:12:57;;;;;;;15.93;8.57;;;14.20;99.90;;;;;;5058069;28;20056;-72
2022/09/09 03:15:23;;;;;;;12.65;8.25;;;14.20;99.90;;;;;;5058009;28;20045;-71
2022/09/09 03:17:48;;;;;;;14.13;8.88;;;14.20;99.90;;;;;;5058221;28;20049;-72
2022/09/09 03:20:14;;;;;;;17.08;9.00;;;14.30;99.90;;;;;;5039727;28;20076;-70
2022/09/09 03:22:40;;;;;;;18.80;8.48;;;14.30;99.90;;;;;;5057816;28;20092;-71
2022/09/09 03:25:06;;;;;;;14.52;7.35;;;14.30;99.90;;;;;;5057921;28;20103;-71
2022/09/09 03:27:32;;;;;;;15.48;8.02;;;14.40;99.90;;;;;;5057709;28;20376;-71
2022/09/09 03:29:58;;;;;;;17.27;7.03;;;14.40;99.90;;;;;;5057740;28;20064;-71
2022/09/09 03:32:26;;;;;;;13.38;6.82;;;14.40;99.90;;;;;;5057665;28;20041;-71
2022/09/09 03:34:52;;;;;;;11.25;6.05;;;14.40;99.90;;;;;;5057627;28;20060;-70
2022/09/09 03:37:19;;;;;;;13.25;6.13;;;14.40;99.90;;;;;;5057485;28;20037;-72
2022/09/09 03:39:45;;;;;;;16.30;6.60;;;14.40;99.90;;;;;;5057845;28;20437;-71
2022/09/09 03:42:14;;;;;;;19.08;7.22;;;14.50;99.90;;;;;;5057851;28;20053;-71
2022/09/09 03:44:41;;;;;;;18.40;7.25;;;14.50;99.90;;;;;;5057295;28;20056;-71
2022/09/09 03:47:07;;;;;;;15.80;7.20;;;14.60;99.90;;;;;;5057563;28;20064;-71
2022/09/09 03:49:33;;;;;;;12.43;6.60;;;14.60;99.90;;;;;;5056737;28;20094;-72
2022/09/09 03:51:58;;;;;;;16.05;7.07;;;14.50;99.90;;;;;;5057382;28;20053;-72
2022/09/09 03:54:25;;;;;;;13.60;6.45;;;14.60;99.90;;;;;;5057497;28;20041;-71
2022/09/09 03:56:51;;;;;;;16.20;6.97;;;14.60;99.90;;;;;;5057496;28;20052;-71
2022/09/09 03:59:16;;;;;;;13.00;6.18;;;14.60;99.90;;;;;;5057252;28;20453;-72
2022/09/09 04:01:42;;;;;;;13.02;6.70;;;14.70;99.90;;;;;;5057599;28;20142;-71
2022/09/09 04:04:08;;;;;;;14.25;6.28;;;14.60;99.90;;;;;;5038942;28;20045;-72
2022/09/09 04:06:34;;;;;;;12.98;6.28;;;14.60;99.90;;;;;;5056900;28;20485;-73
2022/09/09 04:09:02;;;;;;;13.40;6.32;;;14.60;99.90;;;;;;5057124;28;20069;-71
2022/09/09 04:11:29;;;;;;;13.65;6.63;;;14.60;99.90;;;;;;5042079;28;20052;-69
2022/09/09 04:13:54;;;;;;;10.85;5.90;;;14.60;99.90;;;;;;5058498;28;20036;-73
2022/09/09 04:16:20;;;;;;;12.88;6.32;;;14.60;99.90;;;;;;5039307;28;20040;-72
2022/09/09 04:18:46;;;;;;;13.27;6.43;;;14.50;99.90;;;;;;5057061;28;20037;-72
2022/09/09 04:21:12;;;;;;;9.90;5.15;;;14.60;99.90;;;;;;5056801;28;20080;-72
2022/09/09 04:23:38;;;;;;;14.10;5.00;;;14.60;99.90;;;;;;5056868;28;20053;-71
2022/09/09 04:26:05;;;;;;;11.93;5.55;;;14.50;99.90;;;;;;5056217;28;20450;-72
2022/09/09 04:28:34;;;;;;;7.72;4.88;;;14.50;99.90;;;;;;5039199;28;20053;-72
2022/09/09 04:31:07;;;;;;;10.27;5.00;;;14.50;99.90;;;;;;5039521;28;20060;-72
2022/09/09 04:33:33;;;;;;;13.57;5.70;;;14.50;99.90;;;;;;5036829;28;20049;-72
2022/09/09 04:35:58;;;;;;;10.55;5.90;;;14.50;99.90;;;;;;5036647;28;20064;-72
2022/09/09 04:38:25;;;;;;;12.30;6.35;;;14.50;99.90;;;;;;5038685;28;20077;-71
2022/09/09 04:40:52;;;;;;;10.30;6.35;;;14.40;99.90;;;;;;5040487;28;20321;-73
2022/09/09 04:43:18;;;;;;;12.50;6.78;;;14.50;99.90;;;;;;5047022;28;20124;-72
2022/09/09 04:45:47;;;;;;;9.23;6.30;;;14.40;99.90;;;;;;5048324;28;20175;-73
2022/09/09 04:48:13;;;;;;;12.80;7.40;;;14.50;99.90;;;;;;5042549;28;20038;-74
2022/09/09 04:50:40;;;;;;;11.20;7.40;;;14.40;99.90;;;;;;5036217;28;20122;-72
2022/09/09 04:53:06;;;;;;;14.30;7.47;;;14.40;99.90;;;;;;5052050;28;20133;-74
2022/09/09 04:55:33;;;;;;;14.73;8.82;;;14.40;99.90;;;;;;5055893;28;20083;-74
2022/09/09 04:58:03;;;;;;;15.48;8.02;;;14.40;99.90;;;;;;5055749;28;20056;-73
2022/09/09 05:00:29;;;;;;;17.60;9.15;;;14.30;99.90;;;;;;5055542;28;20444;-72
2022/09/09 05:02:54;;;;;;;20.13;10.05;;;14.50;99.90;;;;;;5055510;28;20048;-72
2022/09/09 05:05:20;;;;;;;18.00;10.30;;;14.40;99.90;;;;;;5054275;28;20055;-71
2022/09/09 05:07:47;;;;;;;16.38;9.95;;;14.40;99.90;;;;;;5036850;28;20079;-70
2022/09/09 05:10:13;;;;;;;16.58;10.15;;;14.30;99.90;;;;;;5054357;28;20543;-70
2022/09/09 05:12:38;;;;;;;17.05;11.07;;;14.30;99.90;;;;;;5055367;28;20049;-72
2022/09/09 05:15:04;;;;;;;18.52;10.60;;;14.30;99.90;;;;;;5054776;28;20124;-71
2022/09/09 05:17:30;;;;;;;18.27;11.20;;;14.30;99.90;;;;;;5054904;28;20044;-70
2022/09/09 05:19:56;;;;;;;18.00;11.80;;;14.30;99.90;;;;;;5054100;28;20400;-71
2022/09/09 05:22:23;;;;;;;18.75;11.65;;;14.30;99.90;;;;;;5055151;28;20360;-71
2022/09/09 05:24:50;;;;;;;20.10;11.82;;;14.30;99.90;;;;;;5037286;28;20103;-71
2022/09/09 05:27:19;;;;;;;14.68;11.10;;;14.20;99.90;;;;;;5054977;28;20479;-72
2022/09/09 05:29:45;;;;;;;21.65;11.85;;;14.40;99.90;;;;;;5055115;28;20049;-73
2022/09/09 05:32:10;;;;;;;17.67;11.27;;;14.30;99.90;;;;;;5055410;28;20068;-70
2022/09/09 05:34:37;;;;;;;20.70;11.95;;;14.30;99.90;;;;;;5055310;28;20433;-70
2022/09/09 05:37:04;;;;;;;20.45;12.23;;;14.30;99.90;;;;;;5037765;28;20064;-71
2022/09/09 05:39:29;;;;;;;24.92;13.20;;;14.30;99.90;;;;;;5054692;28;20053;-71
2022/09/09 05:41:55;;;;;;;21.05;13.10;;;14.30;99.90;;;;;;5058050;28;20132;-72
2022/09/09 05:44:23;;;;;;;19.23;12.80;;;14.30;99.90;;;;;;5054776;28;20045;-71
2022/09/09 05:46:49;;;;;;;19.67;10.57;;;14.30;99.90;;;;;;5055344;28;20049;-72
2022/09/09 05:49:15;;;;;;;21.00;10.70;;;14.30;99.90;;;;;;5055099;28;20048;-71
2022/09/09 05:51:42;;;;;;;20.50;12.43;;;14.40;99.90;;;;;;5054966;28;20055;-71
2022/09/09 05:54:07;;;;;;;13.80;9.73;;;14.40;99.90;;;;;;5050204;28;20044;-70
2022/09/09 05:56:33;;;;;;;15.32;10.05;;;14.30;99.90;;;;;;5032513;28;20047;-69
2022/09/09 05:58:59;;;;;;;14.48;10.15;;;14.30;99.90;;;;;;5033692;28;20121;-69
2022/09/09 06:01:34;;;;;;;16.90;10.95;;;14.30;99.90;;;;;;5035112;28;20064;-70
2022/09/09 06:03:59;;;;;;;17.00;10.88;;;14.40;99.90;;;;;;5034487;28;20124;-70
2022/09/09 06:06:36;;;;;;;16.65;10.75;;;14.30;99.90;;;;;;5034770;28;20141;-69
2022/09/09 06:09:03;;;;;;;18.48;10.80;;;14.30;99.90;;;;;;5048849;28;20044;-69
2022/09/09 06:11:33;;;;;;;15.18;10.13;;;14.40;99.90;;;;;;5053569;28;20412;-69
2022/09/09 06:13:59;;;;;;;13.32;9.40;;;14.40;99.90;;;;;;5054629;28;20049;-69
2022/09/09 06:16:27;;;;;;;14.63;10.00;;;14.40;99.90;;;;;;5054341;28;20421;-69
2022/09/09 06:18:56;;;;;;;16.85;10.75;;;14.40;99.90;;;;;;5054303;28;20111;-70
2022/09/09 06:21:23;;;;;;;15.60;10.48;;;14.50;99.90;;;;;;5054605;28;20052;-70
2022/09/09 06:23:50;;;;;;;22.75;10.95;;;14.50;99.90;;;;;;5054551;28;20040;-69
2022/09/09 06:26:19;;;;;;;14.38;9.95;;;14.50;99.90;;;;;;5036854;28;20083;-70
2022/09/09 06:28:47;;;;;;;18.33;11.00;;;14.60;99.90;;;;;;5054526;28;20091;-71
2022/09/09 06:31:17;;;;;;;15.65;10.32;;;14.60;99.90;;;;;;5054022;28;20123;-71
2022/09/09 06:33:43;;;;;;;15.55;9.90;;;14.70;99.90;;;;;;5037110;28;20068;-71
2022/09/09 06:36:14;;;;;;;14.48;9.80;;;14.80;99.90;;;;;;5054112;28;20049;-71
2022/09/09 06:38:41;;;;;;;15.35;10.07;;;14.80;99.90;;;;;;5053403;28;20075;-71
2022/09/09 06:41:08;;;;;;;15.75;9.40;;;14.90;99.90;;;;;;5053419;28;20151;-71
2022/09/09 06:43:34;;;;;;;14.20;10.70;;;15.00;99.90;;;;;;5054235;28;20080;-71
2022/09/09 06:46:10;;;;;;;12.75;9.38;;;15.10;99.90;;;;;;5054177;28;20056;-70
2022/09/09 06:48:36;;;;;;;15.60;10.13;;;15.20;99.90;;;;;;5054276;28;20041;-69
2022/09/09 06:51:22;;;;;;;13.48;10.07;;;15.20;99.90;;;;;;5054254;28;20060;-70
2022/09/09 06:53:54;;;;;;;14.07;10.05;;;15.30;99.90;;;;;;5052620;28;20064;-71
2022/09/09 06:56:21;;;;;;;14.63;9.15;;;15.40;99.90;;;;;;5053406;28;20048;-70
2022/09/09 06:58:48;;;;;;;12.52;8.40;;;15.40;99.90;;;;;;5053523;28;20065;-71
2022/09/09 07:01:19;;;;;;;15.07;9.02;;;15.50;99.90;;;;;;5054120;28;20116;-72
2022/09/09 07:03:51;;;;;;;14.70;8.98;;;15.60;99.90;;;;;;5053697;28;20040;-69
2022/09/09 07:06:20;;;;;;;13.68;9.02;;;15.60;99.90;;;;;;5053171;28;20522;-71
2022/09/09 07:08:50;;;;;;;12.57;9.60;;;15.70;99.90;;;;;;5053667;28;20041;-72
2022/09/09 07:11:15;;;;;;;12.57;8.77;;;15.60;99.90;;;;;;5052788;28;20527;-71
2022/09/09 07:13:42;;;;;;;13.65;8.65;;;15.70;99.90;;;;;;5053364;28;20080;-71
2022/09/09 07:16:09;;;;;;;11.32;8.00;;;15.80;99.90;;;;;;5053848;28;20116;-72
2022/09/09 07:18:35;;;;;;;16.10;9.23;;;15.80;99.90;;;;;;5053865;28;20041;-70
2022/09/09 07:21:02;;;;;;;11.07;8.00;;;15.90;99.90;;;;;;5053970;28;20045;-71
2022/09/09 07:23:29;;;;;;;18.80;7.43;;;16.10;99.90;;;;;;5053784;28;20041;-72
2022/09/09 07:25:55;;;;;;;9.50;6.90;;;16.30;99.90;;;;;;5055580;28;20141;-72
2022/09/09 07:28:22;;;;;;;11.20;7.57;;;16.40;99.90;;;;;;5056891;28;20440;-71
2022/09/09 07:30:56;;;;;;;7.60;6.45;;;16.40;99.90;;;;;;5057136;28;20398;-71
2022/09/09 07:33:23;;;;;;;10.65;6.75;;;16.60;99.90;;;;;;5057373;28;20056;-71
2022/09/09 07:35:49;;;;;;;11.35;6.60;;;16.80;99.90;;;;;;5056914;28;20044;-71
2022/09/09 07:38:15;;;;;;;9.13;6.20;;;17.00;99.90;;;;;;5056240;28;20048;-72
2022/09/09 07:40:41;;;;;;;9.57;6.05;;;17.20;99.90;;;;;;5056444;28;20052;-72
2022/09/09 07:43:06;;;;;;;11.15;6.05;;;17.30;99.90;;;;;;5057008;28;20045;-70
2022/09/09 07:45:34;;;;;;;10.07;6.38;;;17.40;99.90;;;;;;5057119;28;20436;-73
2022/09/09 07:48:00;;;;;;;8.30;5.18;;;17.60;99.90;;;;;;5056932;28;20056;-71
2022/09/09 07:50:26;;;;;;;11.15;6.03;;;17.60;99.90;;;;;;5056728;28;20475;-72
2022/09/09 07:52:53;;;;;;;8.65;5.15;;;17.60;99.90;;;;;;5056386;28;20040;-71
2022/09/09 07:55:19;;;;;;;7.95;4.95;;;17.60;99.90;;;;;;5056876;28;20049;-72
2022/09/09 07:57:45;;;;;;;7.13;5.05;;;17.60;99.90;;;;;;5038830;28;20052;-71
2022/09/09 08:00:13;;;;;;;7.43;5.38;;;17.60;99.90;;;;;;5056912;28;20041;-71
2022/09/09 08:02:39;;;;;;;8.77;5.13;;;17.50;99.90;;;;;;5056338;28;20045;-72
2022/09/09 08:05:05;;;;;;;8.43;4.80;;;17.60;99.90;;;;;;5051178;28;20193;-73
2022/09/09 08:07:31;;;;;;;8.80;4.70;;;17.60;99.90;;;;;;5039327;28;20036;-71
2022/09/09 08:09:57;;;;;;;9.00;5.15;;;17.60;99.90;;;;;;5049593;28;20041;-71
2022/09/09 08:12:23;;;;;;;6.90;4.50;;;17.80;99.90;;;;;;5046590;28;20037;-71
2022/09/09 08:14:48;;;;;;;8.45;4.57;;;17.90;99.90;;;;;;5042288;28;20128;-71
2022/09/09 08:17:14;;;;;;;7.13;4.68;;;17.90;99.90;;;;;;5053324;28;20041;-72
2022/09/09 08:19:40;;;;;;;8.30;3.83;;;18.10;99.90;;;;;;5055467;28;20041;-71
2022/09/09 08:22:05;;;;;;;8.70;4.72;;;18.20;99.90;;;;;;5055903;28;20052;-71
2022/09/09 08:24:31;;;;;;;7.70;4.72;;;18.40;99.90;;;;;;5056445;28;20419;-71
2022/09/09 08:26:57;;;;;;;6.88;4.15;;;18.50;99.90;;;;;;5056217;28;20052;-72
2022/09/09 08:29:23;;;;;;;8.55;5.05;;;18.50;99.90;;;;;;5055973;28;20119;-73
2022/09/09 08:31:50;;;;;;;16.75;4.18;;;18.60;99.90;;;;;;5055707;28;20171;-71
2022/09/09 08:34:17;;;;;;;9.68;4.22;;;18.60;99.90;;;;;;5056204;28;20407;-71
2022/09/09 08:36:44;;;;;;;11.95;4.97;;;18.60;99.90;;;;;;5054552;28;20080;-72
2022/09/09 08:39:12;;;;;;;8.07;4.25;;;18.50;99.90;;;;;;5055122;28;20072;-71
2022/09/09 08:41:43;;;;;;;11.50;4.32;;;18.60;99.90;;;;;;5056268;28;20048;-71
2022/09/09 08:44:33;;;;;;;11.25;4.50;;;18.50;99.90;;;;;;5056128;28;20116;-70
2022/09/09 08:47:35;;;;;;;22.83;3.90;;;18.50;99.90;;;;;;5055561;28;20055;-73
2022/09/09 08:50:24;;;;;;;8.38;4.03;;;18.50;99.90;;;;;;5055944;28;20045;-72
2022/09/09 08:52:50;;;;;;;7.45;3.75;;;18.70;99.90;;;;;;5055719;28;20356;-71
2022/09/09 08:55:36;;;;;;;10.93;4.25;;;18.80;99.90;;;;;;5055774;28;20136;-68
2022/09/09 08:58:11;;;;;;;10.05;3.88;;;18.90;99.90;;;;;;5038552;28;20449;-71
2022/09/09 09:00:51;;;;;;;9.30;4.30;;;18.90;99.90;;;;;;5055340;28;20084;-70
2022/09/09 09:03:41;;;;;;;11.40;4.57;;;19.00;99.90;;;;;;5055756;28;20346;-70
2022/09/09 09:06:41;;;;;;;8.77;3.60;;;19.00;99.90;;;;;;5055461;28;20060;-71
2022/09/09 09:09:22;;;;;;;11.82;4.40;;;19.10;99.90;;;;;;5054928;28;20055;-72
2022/09/09 09:11:51;;;;;;;8.13;4.03;;;19.30;99.90;;;;;;5055157;28;20048;-71
2022/09/09 09:14:25;;;;;;;11.10;4.28;;;19.70;99.90;;;;;;5055281;28;20056;-70
2022/09/09 09:16:58;;;;;;;10.48;3.75;;;19.80;99.90;;;;;;5054725;28;20071;-70
2022/09/09 09:19:26;;;;;;;10.93;4.25;;;19.90;99.90;;;;;;5055383;28;20060;-71
2022/09/09 09:22:18;;;;;;;10.00;3.80;;;19.80;99.90;;;;;;5055131;28;20461;-71
2022/09/09 09:24:55;;;;;;;7.25;3.38;;;20.00;99.90;;;;;;5054999;28;20145;-71
2022/09/09 09:27:36;;;;;;;8.90;3.97;;;20.30;99.90;;;;;;5054869;28;20353;-70
2022/09/09 09:30:23;;;;;;;9.95;3.60;;;20.40;99.90;;;;;;5054518;28;20040;-69
2022/09/09 09:33:02;;;;;;;6.95;3.33;;;20.60;99.90;;;;;;5055078;28;20041;-71
2022/09/09 09:35:27;;;;;;;10.00;3.58;;;20.60;99.90;;;;;;5054812;28;20373;-71
2022/09/09 09:37:53;;;;;;;8.90;3.42;;;20.70;99.90;;;;;;5055087;28;20041;-71
2022/09/09 09:40:21;;;;;;;11.82;3.05;;;20.70;99.90;;;;;;5054028;28;20060;-71
2022/09/09 09:42:59;;;;;;;7.57;2.95;;;20.70;99.90;;;;;;5055161;28;20055;-71
2022/09/09 09:45:41;;;;;;;11.10;3.33;;;20.70;99.90;;;;;;5036552;28;20057;-71
2022/09/09 09:48:12;;;;;;;10.35;2.92;;;20.70;99.90;;;;;;5054834;28;20411;-72
2022/09/09 09:50:52;;;;;;;13.77;2.90;;;20.60;99.90;;;;;;5055122;28;20056;-70
2022/09/09 09:53:24;;;;;;;21.67;3.40;;;20.50;99.90;;;;;;5054586;28;20461;-70
2022/09/09 09:55:59;;;;;;;10.43;3.08;;;20.40;99.90;;;;;;5054599;28;20041;-71
2022/09/09 09:58:50;;;;;;;8.63;2.95;;;20.40;99.90;;;;;;5054375;28;20422;-70
2022/09/09 10:01:34;;;;;;;9.10;3.30;;;20.20;99.90;;;;;;5027519;28;20110;-71
2022/09/09 10:04:23;;;;;;;7.72;2.30;;;20.30;99.90;;;;;;5054567;28;20371;-71
2022/09/09 10:06:50;;;;;;;11.13;3.15;;;20.40;99.90;;;;;;5054251;28;20056;-71
2022/09/09 10:09:23;;;;;;;9.70;3.03;;;20.50;99.90;;;;;;5054153;28;20365;-71
2022/09/09 10:11:52;;;;;;;;;;;20.50;99.90;;;;;;5055289;28;20102;-71
2022/09/09 10:14:22;;;;;;;9.70;2.80;;;20.60;99.90;;;;;;5054743;28;19924;-69
2022/09/09 10:17:05;;;;;;;9.65;2.72;;;20.60;99.90;;;;;;5054219;28;20056;-71
2022/09/09 10:19:34;;;;;;;15.43;2.95;;;20.70;99.90;;;;;;5052214;28;20045;-70
2022/09/09 10:22:25;;;;;;;10.48;2.45;;;20.70;99.90;;;;;;5035715;28;20078;-69
2022/09/09 10:25:18;;;;;;;10.57;2.50;;;20.70;99.90;;;;;;5048849;28;20041;-70
2022/09/09 10:28:02;;;;;;;7.20;2.40;;;20.80;99.90;;;;;;5034031;28;20129;-69
2022/09/09 10:30:49;;;;;;;12.45;2.85;;;20.90;99.90;;;;;;5045438;28;20041;-69
2022/09/09 10:33:39;;;;;;;17.30;3.00;;;21.00;99.90;;;;;;5045281;28;20061;-69
2022/09/09 10:36:18;;;;;;;7.00;2.53;;;20.80;99.90;;;;;;5048719;28;20048;-69
2022/09/09 10:38:52;;;;;;;8.35;2.22;;;20.90;99.90;;;;;;5053973;28;20068;-69
2022/09/09 10:41:51;;;;;;;9.63;2.17;;;21.00;99.90;;;;;;5053939;28;20128;-71
2022/09/09 10:44:39;;;;;;;5.97;1.67;;;21.20;99.90;;;;;;5036952;28;20049;-68
2022/09/09 10:47:25;;;;;;;8.95;2.25;;;21.30;99.90;;;;;;5037965;28;20045;-71
2022/09/09 10:50:03;;;;;;;10.30;2.13;;;21.20;99.90;;;;;;5053004;28;20095;-70
2022/09/09 10:52:39;;;;;;;10.20;1.75;;;21.30;99.90;;;;;;5014689;28;20059;-71
2022/09/09 10:55:18;;;;;;;7.07;2.20;;;21.30;99.90;;;;;;5035151;28;20049;-71
2022/09/09 10:57:45;;;;;;;5.95;1.77;;;21.30;99.90;;;;;;5045229;28;20115;-71
2022/09/09 11:00:21;;;;;;;8.52;1.98;;;21.20;99.90;;;;;;5046779;28;20117;-71
2022/09/09 11:02:53;;;;;;;6.70;2.03;;;21.10;99.90;;;;;;5057366;28;20048;-70
2022/09/09 11:05:28;;;;;;;6.88;1.95;;;21.10;99.90;;;;;;5053368;28;20136;-71
2022/09/09 11:08:02;;;;;;;5.28;1.33;;;21.10;99.90;;;;;;5040993;28;20369;-71
2022/09/09 11:10:59;;;;;;;9.02;2.10;;;21.10;99.90;;;;;;5049549;28;20041;-72
2022/09/09 11:13:27;;;;;;;8.55;2.03;;;21.30;99.90;;;;;;5053040;28;20055;-72
2022/09/09 11:16:01;;;;;;;8.48;2.08;;;21.50;99.90;;;;;;5020681;28;20045;-73
2022/09/09 11:18:31;;;;;;;10.05;1.95;;;21.70;99.90;;;;;;5056980;28;20052;-73
2022/09/09 11:21:01;;;;;;;6.95;1.63;;;21.70;99.90;;;;;;5057458;28;20071;-73
2022/09/09 11:23:49;;;;;;;8.68;1.83;;;21.80;99.90;;;;;;5057087;28;20441;-72
2022/09/09 11:26:23;;;;;;;12.18;2.30;;;22.00;99.90;;;;;;5039886;28;20055;-71
2022/09/09 11:29:15;;;;;;;7.63;1.95;;;22.10;99.90;;;;;;5057494;28;20365;-72
2022/09/09 11:31:56;;;;;;;7.45;1.70;;;22.30;99.90;;;;;;5056679;28;20045;-72
2022/09/09 11:34:49;;;;;;;8.25;1.73;;;22.40;99.90;;;;;;5057348;28;20053;-71
2022/09/09 11:37:51;;;;;;;7.57;1.50;;;22.50;99.90;;;;;;5057475;28;20130;-71
2022/09/09 11:40:19;;;;;;;9.68;2.17;;;22.10;99.90;;;;;;5057432;28;20111;-71
2022/09/09 11:42:49;;;;;;;11.02;1.65;;;22.20;99.90;;;;;;5056951;28;20055;-71
2022/09/09 11:45:23;;;;;;;7.72;1.73;;;22.20;99.90;;;;;;5056897;28;20041;-72
2022/09/09 11:47:54;;;;;;;8.65;1.80;;;22.10;99.90;;;;;;5056451;28;20477;-72
2022/09/09 11:50:20;;;;;;;7.72;1.90;;;21.90;99.90;;;;;;5056589;28;20487;-72
2022/09/09 11:52:47;;;;;;;6.13;1.50;;;21.80;99.90;;;;;;5056884;28;20131;-71
2022/09/09 11:55:27;;;;;;;4.47;1.42;;;21.70;99.90;;;;;;5039204;28;20341;-72
2022/09/09 11:58:04;;;;;;;9.85;2.05;;;21.60;99.90;;;;;;5056937;28;20037;-72
2022/09/09 12:00:41;;;;;;;6.97;1.70;;;21.60;99.90;;;;;;5056492;28;20040;-71
2022/09/09 12:03:44;;;;;;;5.78;1.67;;;21.80;99.90;;;;;;5056051;28;20458;-71
2022/09/09 12:06:13;;;;;;;8.55;1.60;;;22.10;99.90;;;;;;5056830;28;20131;-71
2022/09/09 12:08:42;;;;;;;12.65;1.80;;;22.20;99.90;;;;;;5039195;28;20476;-71
2022/09/09 12:11:08;;;;;;;9.23;1.90;;;22.30;99.90;;;;;;5056301;28;20075;-71
2022/09/09 12:13:34;;;;;;;5.93;1.58;;;22.30;99.90;;;;;;5056411;28;20045;-71
2022/09/09 12:16:02;;;;;;;8.13;2.33;;;22.20;99.90;;;;;;5056337;28;20105;-72
2022/09/09 12:18:36;;;;;;;6.75;1.67;;;22.00;99.90;;;;;;5056210;28;20059;-69
2022/09/09 12:21:29;;;;;;;5.30;1.70;;;21.90;99.90;;;;;;5056296;28;20045;-69
2022/09/09 12:24:03;;;;;;;6.57;1.92;;;22.00;99.90;;;;;;5056046;28;20459;-69
2022/09/09 12:26:47;;;;;;;6.90;1.77;;;22.20;99.90;;;;;;5056080;28;20399;-69
2022/09/09 12:29:18;;;;;;;6.28;1.77;;;22.40;99.90;;;;;;5055389;28;20116;-69
2022/09/09 12:32:01;;;;;;;13.30;2.05;;;22.50;99.90;;;;;;5056079;28;20041;-68
2022/09/09 12:34:49;;;;;;;6.72;1.70;;;22.50;99.90;;;;;;5055374;28;20060;-69
2022/09/09 12:37:39;;;;;;;8.65;1.65;;;22.60;99.90;;;;;;5056066;28;20461;-69
2022/09/09 12:40:19;;;;;;;5.78;1.73;;;22.70;99.90;;;;;;5056077;28;20080;-70
2022/09/09 12:42:44;;;;;;;7.45;1.83;;;22.90;99.90;;;;;;5055864;28;20044;-70
2022/09/09 12:45:25;;;;;;;9.05;1.92;;;23.00;99.90;;;;;;5055138;28;20339;-70
2022/09/09 12:47:55;;;;;;;6.53;1.85;;;23.00;99.90;;;;;;5056113;28;20124;-68
2022/09/09 12:50:27;;;;;;;6.80;1.77;;;23.10;99.90;;;;;;5056473;28;20053;-68
2022/09/09 12:52:56;;;;;;;6.82;1.42;;;23.20;99.90;;;;;;5055852;28;20048;-69
2022/09/09 12:55:27;;;;;;;6.70;1.65;;;23.30;99.90;;;;;;5055660;28;20370;-69
2022/09/09 12:57:53;;;;;;;5.38;1.42;;;23.20;99.90;;;;;;5037810;28;20499;-69
2022/09/09 13:00:22;;;;;;;4.38;1.55;;;23.20;99.90;;;;;;5055282;28;20124;-69
2022/09/09 13:03:01;;;;;;;6.05;1.33;;;22.90;99.90;;;;;;5055501;28;20124;-69